Time;durP1;ratioP1;P1;durP2;ratioP2;P2;SDS_P1;SDS_P2;PMS_P1;PMS_P2;Temp;Humidity;BMP_temperature;BMP_pressure;BME280_temperature;BME280_humidity;BME280_pressure;Samples;Min_cycle;Max_cycle;Signal;HPM_P1;HPM_P2
2021/03/17 00:00:08;;;;;;;4.53;1.57;;;11.10;99.90;;;;;;4974069;28;20232;-78
2021/03/17 00:02:34;;;;;;;7.60;2.37;;;11.10;99.90;;;;;;4973475;28;20208;-82
2021/03/17 00:05:01;;;;;;;4.07;1.70;;;11.00;99.90;;;;;;4973365;28;20209;-80
2021/03/17 00:07:28;;;;;;;3.33;2.27;;;10.80;99.90;;;;;;4973682;28;20766;-79
2021/03/17 00:09:54;;;;;;;5.90;2.33;;;10.70;99.90;;;;;;4972666;28;20224;-79
2021/03/17 00:12:21;;;;;;;5.67;1.73;;;10.60;99.90;;;;;;4972872;28;20713;-77
2021/03/17 00:14:47;;;;;;;4.83;2.10;;;10.50;99.90;;;;;;4972508;28;20677;-72
2021/03/17 00:17:14;;;;;;;4.87;1.90;;;10.40;99.90;;;;;;4973067;28;20748;-74
2021/03/17 00:19:40;;;;;;;4.40;2.30;;;10.30;99.90;;;;;;4972806;28;20237;-77
2021/03/17 00:22:08;;;;;;;4.40;1.50;;;10.40;99.90;;;;;;4973610;28;20221;-79
2021/03/17 00:24:35;;;;;;;3.93;2.00;;;10.40;99.90;;;;;;4973485;28;20210;-74
2021/03/17 00:27:02;;;;;;;5.07;2.10;;;10.40;99.90;;;;;;4972371;28;20213;-79
2021/03/17 00:29:28;;;;;;;3.57;1.77;;;10.40;99.90;;;;;;4972914;28;20252;-80
2021/03/17 00:31:55;;;;;;;6.10;2.13;;;10.40;99.90;;;;;;4972704;28;20606;-76
2021/03/17 00:34:21;;;;;;;5.57;2.03;;;10.40;99.90;;;;;;4973477;28;20209;-86
2021/03/17 00:36:48;;;;;;;6.97;2.57;;;10.40;99.90;;;;;;4972320;28;20213;-80
2021/03/17 00:39:14;;;;;;;6.43;2.67;;;10.30;99.90;;;;;;4973078;28;20224;-83
2021/03/17 00:41:42;;;;;;;5.50;2.20;;;10.30;99.90;;;;;;4972074;28;20224;-78
2021/03/17 00:44:08;;;;;;;4.30;1.87;;;10.20;99.90;;;;;;4972969;28;20264;-77
2021/03/17 00:46:35;;;;;;;4.20;2.10;;;10.10;99.90;;;;;;4972659;28;20216;-74
2021/03/17 00:49:01;;;;;;;4.37;2.80;;;10.10;99.90;;;;;;4971770;28;20218;-75
2021/03/17 00:51:28;;;;;;;7.20;1.97;;;10.00;99.90;;;;;;4972581;28;20296;-80
2021/03/17 00:53:55;;;;;;;5.63;2.30;;;10.00;99.90;;;;;;4971905;28;20211;-76
2021/03/17 00:56:21;;;;;;;4.37;1.80;;;10.00;99.90;;;;;;4972371;28;20256;-76
2021/03/17 00:58:48;;;;;;;7.37;2.33;;;9.90;99.90;;;;;;4971885;28;20260;-79
2021/03/17 01:01:15;;;;;;;3.60;1.90;;;9.90;99.90;;;;;;4972629;28;20213;-76
2021/03/17 01:03:41;;;;;;;3.47;2.00;;;10.00;99.90;;;;;;4972111;28;20293;-82
2021/03/17 01:06:08;;;;;;;5.33;2.30;;;9.90;99.90;;;;;;4959045;28;20213;-73
2021/03/17 01:08:34;;;;;;;5.57;1.97;;;10.00;99.90;;;;;;4972831;28;20206;-83
2021/03/17 01:11:01;;;;;;;2.80;2.17;;;9.90;99.90;;;;;;4972239;28;20221;-75
2021/03/17 01:13:27;;;;;;;3.53;1.93;;;10.00;99.90;;;;;;4972472;28;20725;-76
2021/03/17 01:15:55;;;;;;;4.77;2.33;;;9.90;99.90;;;;;;4971884;28;20700;-81
2021/03/17 01:18:21;;;;;;;2.63;1.93;;;9.90;99.90;;;;;;4972430;28;20264;-80
2021/03/17 01:20:48;;;;;;;10.97;2.47;;;9.80;99.90;;;;;;4971747;28;20678;-81
2021/03/17 01:23:15;;;;;;;3.97;1.67;;;9.80;99.90;;;;;;4971781;28;20713;-79
2021/03/17 01:25:45;;;;;;;5.27;2.07;;;9.80;99.90;;;;;;4971683;28;20213;-75
2021/03/17 01:28:13;;;;;;;3.73;2.20;;;9.80;99.90;;;;;;4971488;28;20209;-82
2021/03/17 01:30:42;;;;;;;3.83;1.97;;;9.80;99.90;;;;;;4971943;28;20212;-78
2021/03/17 01:33:11;;;;;;;2.50;1.63;;;9.80;99.90;;;;;;4972032;28;20234;-78
2021/03/17 01:35:38;;;;;;;5.37;2.00;;;9.80;99.90;;;;;;4972091;28;20205;-72
2021/03/17 01:38:05;;;;;;;3.03;2.10;;;9.80;99.90;;;;;;4972126;28;20217;-76
2021/03/17 01:40:34;;;;;;;3.27;1.70;;;9.80;99.90;;;;;;4972001;28;20260;-73
2021/03/17 01:43:00;;;;;;;5.20;2.10;;;9.70;99.90;;;;;;4971575;28;20217;-75
2021/03/17 01:45:27;;;;;;;3.10;2.47;;;9.70;99.90;;;;;;4971912;28;20214;-75
2021/03/17 01:47:54;;;;;;;5.03;2.33;;;9.70;99.90;;;;;;4971714;28;20205;-83
2021/03/17 01:50:25;;;;;;;5.37;2.13;;;9.70;99.90;;;;;;4971941;28;20220;-79
2021/03/17 01:52:53;;;;;;;2.27;2.00;;;9.70;99.90;;;;;;4971555;28;20229;-80
2021/03/17 01:55:21;;;;;;;4.83;1.87;;;9.70;99.90;;;;;;4971921;28;20268;-84
2021/03/17 01:57:48;;;;;;;4.77;2.37;;;9.60;99.90;;;;;;4971403;28;20205;-77
2021/03/17 02:00:17;;;;;;;3.93;2.20;;;9.60;99.90;;;;;;4971985;28;20214;-74
2021/03/17 02:02:47;;;;;;;2.33;1.93;;;9.70;99.90;;;;;;4971139;28;20197;-79
2021/03/17 02:05:16;;;;;;;3.47;1.80;;;9.70;99.90;;;;;;4971808;28;20209;-74
2021/03/17 02:07:44;;;;;;;4.43;1.63;;;9.70;99.90;;;;;;4971099;28;20206;-79
2021/03/17 02:10:12;;;;;;;4.87;2.40;;;9.70;99.90;;;;;;4974341;28;20205;-73
2021/03/17 02:12:49;;;;;;;4.90;3.40;;;9.70;99.90;;;;;;4975392;28;20252;-74
2021/03/17 02:15:32;;;;;;;2.77;1.63;;;9.70;99.90;;;;;;4975752;28;20239;-76
2021/03/17 02:18:06;;;;;;;2.07;1.33;;;9.70;99.90;;;;;;4974744;28;20212;-78
2021/03/17 02:20:57;;;;;;;1.77;1.60;;;9.70;99.90;;;;;;4975646;28;20205;-79
2021/03/17 02:23:29;;;;;;;4.93;1.80;;;9.70;99.90;;;;;;4975348;28;20350;-79
2021/03/17 02:26:30;;;;;;;6.63;2.43;;;9.70;99.90;;;;;;4974633;28;20670;-79
2021/03/17 02:29:11;;;;;;;2.73;1.63;;;9.70;99.90;;;;;;4971557;28;20625;-78
2021/03/17 02:32:08;;;;;;;3.90;1.80;;;9.80;99.90;;;;;;4975218;28;20225;-78
2021/03/17 02:34:41;;;;;;;2.00;1.47;;;9.80;99.90;;;;;;4975313;28;20206;-77
2021/03/17 02:37:12;;;;;;;2.13;1.57;;;9.80;99.90;;;;;;4975263;28;20209;-75
2021/03/17 02:39:42;;;;;;;3.63;2.00;;;9.80;99.90;;;;;;4974909;28;20632;-78
2021/03/17 02:42:15;;;;;;;1.73;1.60;;;9.80;99.90;;;;;;4972815;28;20224;-76
2021/03/17 02:44:45;;;;;;;3.73;1.80;;;9.70;99.90;;;;;;4974260;28;20209;-79
2021/03/17 02:47:13;;;;;;;2.50;1.70;;;9.80;99.90;;;;;;4975088;28;20217;-78
2021/03/17 02:49:43;;;;;;;2.87;1.73;;;9.80;99.90;;;;;;4974755;28;20282;-72
2021/03/17 02:52:10;;;;;;;3.10;1.40;;;9.80;99.90;;;;;;4975287;28;20292;-80
2021/03/17 02:54:38;;;;;;;4.37;2.50;;;9.80;99.90;;;;;;4975150;28;20205;-84
2021/03/17 02:57:10;;;;;;;4.43;1.80;;;9.80;99.90;;;;;;4975428;28;20566;-82
2021/03/17 02:59:41;;;;;;;2.73;1.80;;;9.80;99.90;;;;;;4975297;28;20221;-82
2021/03/17 03:02:08;;;;;;;2.37;1.50;;;9.80;99.90;;;;;;4975159;28;20205;-78
2021/03/17 03:04:36;;;;;;;3.70;2.03;;;9.80;99.90;;;;;;4975522;28;20237;-84
2021/03/17 03:07:04;;;;;;;3.30;1.70;;;9.80;99.90;;;;;;4974902;28;20218;-81
2021/03/17 03:09:30;;;;;;;2.63;1.87;;;9.90;99.90;;;;;;4975040;28;20213;-80
2021/03/17 03:11:58;;;;;;;2.50;1.80;;;9.90;99.90;;;;;;4975484;28;20233;-82
2021/03/17 03:14:27;;;;;;;2.67;1.50;;;9.80;99.90;;;;;;4975677;28;20364;-83
2021/03/17 03:16:57;;;;;;;4.10;2.00;;;9.80;99.90;;;;;;4974054;28;20205;-77
2021/03/17 03:19:28;;;;;;;2.33;1.80;;;9.90;99.90;;;;;;4974455;28;20713;-81
2021/03/17 03:21:54;;;;;;;1.93;1.60;;;9.80;99.90;;;;;;4972729;28;20205;-80
2021/03/17 03:24:23;;;;;;;2.80;1.97;;;9.90;99.90;;;;;;4974662;28;20209;-73
2021/03/17 03:26:52;;;;;;;2.50;2.07;;;9.90;99.90;;;;;;4974185;28;20210;-79
2021/03/17 03:29:19;;;;;;;5.83;2.63;;;9.80;99.90;;;;;;4974249;28;20744;-75
2021/03/17 03:31:48;;;;;;;5.33;2.37;;;9.80;99.90;;;;;;4973523;28;20276;-79
2021/03/17 03:34:15;;;;;;;2.70;2.00;;;9.80;99.90;;;;;;4974485;28;20631;-82
2021/03/17 03:36:42;;;;;;;4.87;1.97;;;9.80;99.90;;;;;;4973605;28;20261;-78
2021/03/17 03:39:09;;;;;;;5.13;1.93;;;9.80;99.90;;;;;;4973819;28;20224;-82
2021/03/17 03:41:37;;;;;;;3.20;2.27;;;9.90;99.90;;;;;;4974526;28;20224;-79
2021/03/17 03:44:04;;;;;;;4.73;2.30;;;9.80;99.90;;;;;;4974062;28;20205;-82
2021/03/17 03:46:31;;;;;;;2.47;2.27;;;9.90;99.90;;;;;;4974353;28;20253;-79
2021/03/17 03:49:00;;;;;;;2.50;2.30;;;9.90;99.90;;;;;;4973241;28;20643;-81
2021/03/17 03:51:27;;;;;;;4.03;2.63;;;9.90;99.90;;;;;;4974064;28;20214;-83
2021/03/17 03:54:08;;;;;;;4.43;2.20;;;9.90;99.90;;;;;;4973366;28;20210;-74
2021/03/17 03:56:39;;;;;;;3.63;2.43;;;10.00;99.90;;;;;;4974884;28;20263;-85
2021/03/17 03:59:11;;;;;;;3.33;2.70;;;9.90;99.90;;;;;;4974747;28;20214;-81
2021/03/17 04:01:43;;;;;;;5.70;2.30;;;9.90;99.90;;;;;;4974037;28;20670;-72
2021/03/17 04:04:12;;;;;;;2.50;1.80;;;9.90;99.90;;;;;;4973838;28;20217;-80
2021/03/17 04:06:39;;;;;;;2.33;2.13;;;10.00;99.90;;;;;;4974059;28;20232;-81
2021/03/17 04:09:08;;;;;;;3.70;2.53;;;9.90;99.90;;;;;;4973651;28;20599;-73
2021/03/17 04:11:37;;;;;;;2.17;2.03;;;9.90;99.90;;;;;;4973505;28;20205;-77
2021/03/17 04:14:08;;;;;;;4.83;2.20;;;10.00;99.90;;;;;;4973173;28;20209;-77
2021/03/17 04:16:37;;;;;;;5.00;2.40;;;9.90;99.90;;;;;;4973279;28;20585;-80
2021/03/17 04:19:05;;;;;;;5.80;2.67;;;10.00;99.90;;;;;;4972609;28;20249;-78
2021/03/17 04:21:34;;;;;;;5.47;2.43;;;10.00;99.90;;;;;;4973092;28;20197;-76
2021/03/17 04:24:03;;;;;;;3.13;2.80;;;10.00;99.90;;;;;;4972789;28;20294;-76
2021/03/17 04:26:31;;;;;;;4.43;3.17;;;9.90;99.90;;;;;;4972853;28;20213;-79
2021/03/17 04:28:59;;;;;;;3.83;3.17;;;10.00;99.90;;;;;;4973015;28;20209;-81
2021/03/17 04:31:28;;;;;;;3.43;2.53;;;10.00;99.90;;;;;;4973013;28;20213;-82
2021/03/17 04:33:55;;;;;;;3.93;3.53;;;10.00;99.90;;;;;;4972527;28;20228;-78
2021/03/17 04:36:24;;;;;;;5.63;3.30;;;10.00;99.90;;;;;;4973190;28;20260;-78
2021/03/17 04:38:51;;;;;;;4.20;2.90;;;10.00;99.90;;;;;;4972117;28;20260;-81
2021/03/17 04:41:18;;;;;;;4.33;3.67;;;9.90;99.90;;;;;;4972623;28;20221;-80
2021/03/17 04:43:46;;;;;;;7.13;4.63;;;9.90;99.90;;;;;;4972057;28;20221;-78
2021/03/17 04:46:14;;;;;;;4.10;2.97;;;9.90;99.90;;;;;;4973015;28;20248;-75
2021/03/17 04:48:44;;;;;;;4.40;3.87;;;9.90;99.90;;;;;;4972256;28;20212;-77
2021/03/17 04:51:11;;;;;;;6.43;4.00;;;9.90;99.90;;;;;;4972384;28;20213;-80
2021/03/17 04:53:38;;;;;;;5.50;3.37;;;9.90;99.90;;;;;;4972546;28;20237;-76
2021/03/17 04:56:07;;;;;;;5.73;4.17;;;9.90;99.90;;;;;;4972753;28;20211;-72
2021/03/17 04:58:37;;;;;;;5.37;3.37;;;9.90;99.90;;;;;;4973003;28;20676;-83
2021/03/17 05:01:06;;;;;;;4.13;3.77;;;9.90;99.90;;;;;;4972251;28;20209;-83
2021/03/17 05:03:35;;;;;;;4.00;3.63;;;9.90;99.90;;;;;;4973037;28;20288;-84
2021/03/17 05:06:05;;;;;;;4.73;4.33;;;9.90;99.90;;;;;;4971833;28;20213;-79
2021/03/17 05:08:33;;;;;;;4.33;3.90;;;9.90;99.90;;;;;;4972537;28;20215;-74
2021/03/17 05:11:00;;;;;;;4.97;3.77;;;9.90;99.90;;;;;;4972531;28;20218;-83
2021/03/17 05:13:27;;;;;;;4.97;4.47;;;9.90;99.90;;;;;;4972525;28;20340;-79
2021/03/17 05:15:54;;;;;;;9.43;5.33;;;9.90;99.90;;;;;;4972895;28;20550;-83
2021/03/17 05:18:22;;;;;;;7.50;4.60;;;10.00;99.90;;;;;;4971975;28;20201;-77
2021/03/17 05:20:51;;;;;;;5.80;4.70;;;9.90;99.90;;;;;;4971537;28;20209;-81
2021/03/17 05:23:20;;;;;;;5.40;4.50;;;10.00;99.90;;;;;;4972163;28;20208;-81
2021/03/17 05:25:48;;;;;;;6.50;4.97;;;10.00;99.90;;;;;;4971804;28;20221;-81
2021/03/17 05:28:16;;;;;;;5.27;4.33;;;10.00;99.90;;;;;;4971816;28;20671;-78
2021/03/17 05:30:44;;;;;;;6.00;4.33;;;10.00;99.90;;;;;;4971888;28;20205;-82
2021/03/17 05:33:12;;;;;;;5.97;4.63;;;10.00;99.90;;;;;;4971901;28;20237;-82
2021/03/17 05:35:39;;;;;;;5.77;4.80;;;10.00;99.90;;;;;;4972090;28;20217;-77
2021/03/17 05:38:07;;;;;;;6.27;4.63;;;10.10;99.90;;;;;;4972018;28;20228;-73
2021/03/17 05:40:36;;;;;;;5.20;4.70;;;10.10;99.90;;;;;;4972550;28;20212;-84
2021/03/17 05:43:05;;;;;;;7.10;4.97;;;10.10;99.90;;;;;;4971880;28;20209;-85
2021/03/17 05:45:33;;;;;;;4.60;4.20;;;10.10;99.90;;;;;;4971631;28;20210;-78
2021/03/17 05:48:01;;;;;;;6.03;5.30;;;10.10;99.90;;;;;;4971508;28;20276;-79
2021/03/17 05:50:28;;;;;;;5.87;5.27;;;10.10;99.90;;;;;;4971629;28;20217;-82
2021/03/17 05:52:56;;;;;;;5.27;4.77;;;10.10;99.90;;;;;;4958240;28;20328;-76
2021/03/17 05:55:22;;;;;;;5.37;4.23;;;10.10;99.90;;;;;;4971792;28;20210;-83
2021/03/17 05:57:50;;;;;;;6.93;5.50;;;10.10;99.90;;;;;;4971788;28;20806;-74
2021/03/17 06:00:19;;;;;;;6.20;5.17;;;10.10;99.90;;;;;;4971904;28;20245;-75
2021/03/17 06:02:47;;;;;;;6.13;4.83;;;10.10;99.90;;;;;;4971512;28;20206;-81
2021/03/17 06:05:14;;;;;;;5.57;4.90;;;10.10;99.90;;;;;;4971903;28;20268;-79
2021/03/17 06:07:43;;;;;;;7.00;4.73;;;10.10;99.90;;;;;;4971884;28;20210;-86
2021/03/17 06:10:11;;;;;;;7.90;5.03;;;10.10;99.90;;;;;;4972281;28;20213;-77
2021/03/17 06:12:39;;;;;;;5.23;4.73;;;10.10;99.90;;;;;;4972111;28;20283;-85
2021/03/17 06:15:08;;;;;;;5.60;4.27;;;10.00;99.90;;;;;;4972225;28;20216;-81
2021/03/17 06:17:36;;;;;;;6.73;5.10;;;10.10;99.90;;;;;;4972375;28;20234;-80
2021/03/17 06:20:06;;;;;;;6.47;5.63;;;10.10;99.90;;;;;;4971525;28;20241;-86
2021/03/17 06:22:35;;;;;;;5.30;4.60;;;10.00;99.90;;;;;;4972713;28;20217;-87
2021/03/17 06:25:04;;;;;;;5.37;4.67;;;10.10;99.90;;;;;;4971598;28;20704;-83
2021/03/17 06:27:31;;;;;;;5.83;4.93;;;10.10;99.90;;;;;;4971709;28;20210;-80
2021/03/17 06:29:58;;;;;;;4.97;4.53;;;10.10;99.90;;;;;;4970972;28;20249;-81
2021/03/17 06:32:26;;;;;;;4.80;4.17;;;10.20;99.90;;;;;;4971157;28;20780;-76
2021/03/17 06:34:53;;;;;;;5.40;4.90;;;10.20;99.90;;;;;;4970438;28;20244;-76
2021/03/17 06:37:35;;;;;;;10.27;5.93;;;10.20;99.90;;;;;;4971281;28;20241;-75
2021/03/17 06:40:02;;;;;;;5.03;4.53;;;10.20;99.90;;;;;;4970565;28;20703;-78
2021/03/17 06:42:39;;;;;;;5.03;4.53;;;10.30;99.90;;;;;;4971679;28;20209;-78
2021/03/17 06:45:07;;;;;;;4.80;4.00;;;10.30;99.90;;;;;;4971692;28;20301;-76
2021/03/17 06:47:35;;;;;;;4.53;4.03;;;10.40;99.90;;;;;;4971647;28;20610;-76
2021/03/17 06:50:07;;;;;;;4.67;4.03;;;10.40;99.90;;;;;;4970689;28;20216;-78
2021/03/17 06:52:36;;;;;;;4.30;3.90;;;10.40;99.90;;;;;;4971087;28;20580;-77
2021/03/17 06:55:14;;;;;;;4.67;4.27;;;10.50;99.90;;;;;;4965053;28;20209;-73
2021/03/17 06:57:44;;;;;;;5.23;3.87;;;10.50;99.90;;;;;;4973079;28;20206;-75
2021/03/17 07:00:25;;;;;;;5.03;4.40;;;10.60;99.90;;;;;;4974585;28;20217;-76
2021/03/17 07:02:55;;;;;;;6.00;4.70;;;10.60;99.90;;;;;;4973737;28;20205;-75
2021/03/17 07:05:30;;;;;;;3.77;3.33;;;10.70;99.90;;;;;;4974807;28;20209;-76
2021/03/17 07:07:58;;;;;;;4.87;4.27;;;10.80;99.90;;;;;;4974071;28;20209;-74
2021/03/17 07:10:33;;;;;;;6.73;4.57;;;10.80;99.90;;;;;;4969238;28;20301;-76
2021/03/17 07:13:04;;;;;;;4.20;3.80;;;10.80;99.90;;;;;;4973848;28;20229;-76
2021/03/17 07:15:31;;;;;;;3.73;3.33;;;10.80;99.90;;;;;;4974286;28;20248;-74
2021/03/17 07:18:16;;;;;;;5.00;3.80;;;10.80;99.90;;;;;;4973793;28;20374;-75
2021/03/17 07:20:45;;;;;;;5.03;4.53;;;10.80;99.90;;;;;;4971732;28;20205;-75
2021/03/17 07:23:33;;;;;;;5.43;4.37;;;10.90;99.90;;;;;;4973991;28;20712;-75
2021/03/17 07:26:21;;;;;;;6.40;4.30;;;10.90;99.90;;;;;;4973856;28;20218;-77
2021/03/17 07:29:03;;;;;;;5.57;4.67;;;11.20;99.90;;;;;;4962834;28;20589;-77
2021/03/17 07:31:31;;;;;;;6.47;4.33;;;11.30;99.90;;;;;;4973608;28;20209;-75
2021/03/17 07:34:26;;;;;;;4.93;3.77;;;11.20;99.90;;;;;;4973737;28;20233;-77
2021/03/17 07:36:58;;;;;;;4.87;3.90;;;11.20;99.90;;;;;;4970615;28;20209;-76
2021/03/17 07:39:26;;;;;;;4.10;3.70;;;11.20;99.90;;;;;;4973310;28;20253;-79
2021/03/17 07:41:56;;;;;;;5.50;4.03;;;11.20;99.90;;;;;;4973227;28;20216;-79
2021/03/17 07:44:23;;;;;;;4.93;4.00;;;11.20;99.90;;;;;;4972435;28;20692;-76
2021/03/17 07:46:52;;;;;;;5.33;4.20;;;11.50;99.90;;;;;;4972761;28;20206;-74
2021/03/17 07:49:19;;;;;;;3.97;3.50;;;11.60;99.90;;;;;;4973533;28;20201;-79
2021/03/17 07:51:50;;;;;;;8.03;4.60;;;11.60;99.90;;;;;;4969871;28;20205;-76
2021/03/17 07:54:23;;;;;;;5.17;4.67;;;11.70;99.90;;;;;;4969625;28;20206;-78
2021/03/17 07:56:49;;;;;;;5.10;4.60;;;11.50;99.90;;;;;;4973334;28;20211;-79
2021/03/17 07:59:18;;;;;;;5.17;4.67;;;11.50;99.90;;;;;;4973096;28;20209;-78
2021/03/17 08:01:45;;;;;;;6.37;5.03;;;11.70;99.90;;;;;;4972533;28;20205;-74
2021/03/17 08:04:14;;;;;;;5.67;4.53;;;11.80;99.90;;;;;;4973421;28;20580;-77
2021/03/17 08:06:40;;;;;;;5.30;4.30;;;11.80;99.90;;;;;;4972252;28;20206;-77
2021/03/17 08:09:08;;;;;;;5.70;5.10;;;12.40;99.90;;;;;;4973752;28;20220;-76
2021/03/17 08:11:35;;;;;;;7.67;4.83;;;12.30;99.90;;;;;;4973529;28;20201;-80
2021/03/17 08:14:02;;;;;;;6.27;4.83;;;11.90;99.90;;;;;;4973054;28;20245;-78
2021/03/17 08:16:31;;;;;;;4.87;4.27;;;12.30;99.90;;;;;;4973010;28;20241;-76
2021/03/17 08:18:58;;;;;;;4.83;4.10;;;12.20;99.90;;;;;;4973192;28;20213;-73
2021/03/17 08:21:53;;;;;;;4.70;4.13;;;12.10;99.90;;;;;;4969234;28;20206;-72
2021/03/17 08:24:46;;;;;;;8.30;5.40;;;12.20;99.90;;;;;;4938079;28;20217;-73
2021/03/17 08:27:30;;;;;;;6.47;4.90;;;12.10;99.90;;;;;;4968387;28;20245;-75
2021/03/17 08:30:10;;;;;;;5.47;4.60;;;12.10;99.90;;;;;;4968406;28;20267;-76
2021/03/17 08:33:06;;;;;;;6.33;5.17;;;12.00;99.90;;;;;;4969483;28;20252;-75
2021/03/17 08:36:01;;;;;;;7.67;6.63;;;11.80;99.90;;;;;;4912633;29;20776;-75
2021/03/17 08:38:50;;;;;;;4.97;4.33;;;11.60;99.90;;;;;;4966685;28;20225;-78
2021/03/17 08:41:38;;;;;;;4.30;3.60;;;12.00;99.90;;;;;;4971833;28;20197;-77
2021/03/17 08:44:12;;;;;;;7.47;3.43;;;12.60;99.90;;;;;;4972406;28;20300;-76
2021/03/17 08:46:38;;;;;;;5.07;3.43;;;13.00;99.90;;;;;;4972475;28;20217;-74
2021/03/17 08:49:06;;;;;;;4.10;3.17;;;12.30;99.90;;;;;;4972670;28;20424;-73
2021/03/17 08:52:00;;;;;;;5.03;3.33;;;11.90;99.90;;;;;;4972989;28;20229;-74
2021/03/17 08:54:45;;;;;;;5.37;3.90;;;11.90;99.90;;;;;;4937689;28;20212;-73
2021/03/17 08:57:14;;;;;;;4.50;3.67;;;11.70;99.90;;;;;;4972260;28;20622;-76
2021/03/17 08:59:41;;;;;;;5.47;3.40;;;11.90;99.90;;;;;;4971663;28;20213;-78
2021/03/17 09:02:20;;;;;;;5.80;3.77;;;12.50;99.90;;;;;;4972535;28;20216;-76
2021/03/17 09:04:48;;;;;;;5.87;3.17;;;12.10;99.90;;;;;;4969313;28;20677;-75
2021/03/17 09:07:15;;;;;;;3.43;3.13;;;13.20;99.90;;;;;;4965115;28;20834;-78
2021/03/17 09:09:46;;;;;;;5.47;3.17;;;13.30;99.90;;;;;;4971375;28;20205;-75
2021/03/17 09:12:14;;;;;;;2.83;2.58;;;13.20;99.90;;;;;;4971635;28;20244;-74
2021/03/17 09:14:41;;;;;;;4.17;3.30;;;12.70;99.90;;;;;;4970075;28;21746;-74
2021/03/17 09:17:29;;;;;;;8.40;3.33;;;12.60;99.90;;;;;;4972727;28;20264;-77
2021/03/17 09:20:13;;;;;;;3.87;2.00;;;12.60;99.90;;;;;;4970807;28;20206;-73
2021/03/17 09:22:47;;;;;;;2.87;2.60;;;14.90;99.90;;;;;;4968055;28;20213;-73
2021/03/17 09:25:26;;;;;;;5.88;2.70;;;16.60;99.90;;;;;;4968098;28;20252;-76
2021/03/17 09:28:02;;;;;;;6.28;2.72;;;16.20;99.90;;;;;;4970002;28;20220;-73
2021/03/17 09:30:32;;;;;;;3.88;3.15;;;15.10;99.90;;;;;;4964928;28;20205;-77
2021/03/17 09:33:10;;;;;;;3.47;2.10;;;16.20;99.90;;;;;;4970759;28;20225;-82
2021/03/17 09:35:38;;;;;;;2.28;2.10;;;17.50;99.90;;;;;;4968648;28;20201;-74
2021/03/17 09:38:11;;;;;;;4.30;2.83;;;18.10;99.90;;;;;;4971610;28;20213;-75
2021/03/17 09:40:42;;;;;;;3.53;2.17;;;16.00;99.90;;;;;;4967394;28;20209;-79
2021/03/17 09:43:33;;;;;;;3.33;2.10;;;15.60;99.90;;;;;;4971435;28;20210;-74
2021/03/17 09:46:00;;;;;;;2.97;2.63;;;13.00;99.90;;;;;;4962457;28;20214;-77
2021/03/17 09:48:27;;;;;;;4.13;2.35;;;13.60;99.90;;;;;;4970807;28;20208;-77
2021/03/17 09:50:59;;;;;;;4.03;2.63;;;16.20;99.90;;;;;;4969930;28;20583;-78
2021/03/17 09:53:26;;;;;;;3.67;2.28;;;15.60;99.90;;;;;;4971634;28;20233;-72
2021/03/17 09:55:53;;;;;;;7.38;2.67;;;14.90;99.90;;;;;;4970628;28;20213;-73
2021/03/17 09:58:19;;;;;;;4.57;2.83;;;15.40;99.90;;;;;;4971330;28;20696;-77
2021/03/17 10:00:48;;;;;;;3.35;2.40;;;15.70;99.90;;;;;;4970555;28;20228;-78
2021/03/17 10:03:15;;;;;;;4.72;2.55;;;14.00;99.90;;;;;;4969438;28;20209;-80
2021/03/17 10:05:43;;;;;;;4.38;3.55;;;13.20;99.90;;;;;;4963902;28;20214;-78
2021/03/17 10:08:10;;;;;;;4.43;2.53;;;13.70;99.90;;;;;;4971561;28;20261;-81
2021/03/17 10:10:37;;;;;;;5.18;2.58;;;13.80;99.90;;;;;;4971440;28;20749;-85
2021/03/17 10:13:04;;;;;;;3.95;2.13;;;13.80;99.90;;;;;;4971012;28;20736;-75
2021/03/17 10:15:31;;;;;;;4.95;2.45;;;15.10;99.90;;;;;;4971773;28;20209;-81
2021/03/17 10:17:58;;;;;;;2.85;1.88;;;12.60;99.90;;;;;;4970935;28;20224;-79
2021/03/17 10:20:27;;;;;;;5.38;2.03;;;11.90;99.90;;;;;;4971261;28;20217;-76
2021/03/17 10:22:58;;;;;;;4.70;2.58;;;14.50;99.90;;;;;;4970872;28;20294;-76
2021/03/17 10:25:27;;;;;;;2.78;1.60;;;16.60;99.90;;;;;;4969612;28;20667;-74
2021/03/17 10:27:58;;;;;;;4.03;1.90;;;16.30;99.90;;;;;;4970814;28;20216;-78
2021/03/17 10:30:29;;;;;;;3.63;1.70;;;17.70;99.90;;;;;;4966045;28;20209;-81
2021/03/17 10:33:00;;;;;;;4.68;2.33;;;17.80;99.90;;;;;;4974504;28;20229;-78
2021/03/17 10:35:29;;;;;;;3.55;1.90;;;17.10;99.90;;;;;;4968088;28;20217;-79
2021/03/17 10:37:57;;;;;;;5.13;2.17;;;13.70;99.90;;;;;;4974366;28;20570;-80
2021/03/17 10:40:25;;;;;;;4.50;1.35;;;12.50;99.90;;;;;;4974816;28;20279;-78
2021/03/17 10:42:55;;;;;;;5.05;1.52;;;12.80;99.90;;;;;;4974445;28;20206;-76
2021/03/17 10:45:23;;;;;;;3.67;1.65;;;13.20;99.90;;;;;;4974998;28;20201;-80
2021/03/17 10:47:50;;;;;;;6.00;2.65;;;12.80;99.90;;;;;;4974189;28;20213;-80
2021/03/17 10:50:18;;;;;;;3.35;1.50;;;12.60;99.90;;;;;;4974650;28;20221;-77
2021/03/17 10:52:47;;;;;;;4.50;2.47;;;12.30;99.90;;;;;;4974330;28;20229;-76
2021/03/17 10:55:19;;;;;;;4.90;2.33;;;13.00;99.90;;;;;;4974657;28;20210;-78
2021/03/17 10:57:48;;;;;;;4.00;1.75;;;13.30;99.90;;;;;;4974198;28;20670;-78
2021/03/17 11:00:24;;;;;;;6.30;1.88;;;12.90;99.90;;;;;;4974668;28;20645;-75
2021/03/17 11:02:51;;;;;;;12.50;2.80;;;12.50;99.90;;;;;;4972599;28;20643;-79
2021/03/17 11:05:22;;;;;;;7.60;1.85;;;12.30;99.90;;;;;;4974642;28;20213;-79
2021/03/17 11:07:56;;;;;;;5.13;2.85;;;12.70;99.90;;;;;;4974183;28;20210;-74
2021/03/17 11:10:56;;;;;;;4.80;1.77;;;12.20;99.90;;;;;;4974421;28;20213;-81
2021/03/17 11:13:32;;;;;;;5.40;1.95;;;12.50;99.90;;;;;;4920491;28;20237;-78
2021/03/17 11:16:02;;;;;;;3.80;1.95;;;12.90;99.90;;;;;;4974176;28;20224;-77
2021/03/17 11:18:30;;;;;;;7.75;2.17;;;13.40;99.90;;;;;;4961776;28;20217;-81
2021/03/17 11:20:59;;;;;;;6.40;2.05;;;12.90;99.90;;;;;;4974218;28;20289;-79
2021/03/17 11:23:33;;;;;;;6.82;2.00;;;12.50;99.90;;;;;;4973708;28;20232;-78
2021/03/17 11:26:00;;;;;;;3.40;2.03;;;12.40;99.90;;;;;;4966420;28;20222;-79
2021/03/17 11:28:30;;;;;;;4.63;2.17;;;12.30;99.90;;;;;;4972503;28;20592;-75
2021/03/17 11:30:59;;;;;;;2.13;1.40;;;13.50;99.90;;;;;;4973077;28;20205;-73
2021/03/17 11:33:26;;;;;;;7.32;2.97;;;13.40;99.90;;;;;;4972944;28;20229;-76
2021/03/17 11:35:54;;;;;;;3.95;2.67;;;13.10;99.90;;;;;;4972648;28;20209;-78
2021/03/17 11:38:22;;;;;;;2.40;1.15;;;12.30;99.90;;;;;;4973420;28;20213;-77
2021/03/17 11:40:51;;;;;;;10.65;1.90;;;12.00;99.90;;;;;;4973579;28;20210;-80
2021/03/17 11:43:19;;;;;;;7.28;1.77;;;12.30;99.90;;;;;;4971573;28;20205;-78
2021/03/17 11:45:47;;;;;;;3.75;1.42;;;12.80;99.90;;;;;;4973506;28;20213;-76
2021/03/17 11:48:14;;;;;;;2.40;1.15;;;12.80;99.90;;;;;;4973972;28;20214;-76
2021/03/17 11:50:42;;;;;;;5.90;2.30;;;12.50;99.90;;;;;;4973064;28;20220;-74
2021/03/17 11:53:09;;;;;;;7.90;1.90;;;12.60;99.90;;;;;;4973878;28;20233;-74
2021/03/17 11:55:36;;;;;;;8.13;1.65;;;12.70;99.90;;;;;;4973997;28;20209;-80
2021/03/17 11:58:04;;;;;;;3.30;1.27;;;12.70;99.90;;;;;;4973890;28;20300;-74
2021/03/17 12:00:31;;;;;;;7.47;1.85;;;12.20;99.90;;;;;;4973675;28;20214;-76
2021/03/17 12:02:58;;;;;;;4.05;1.45;;;11.80;99.90;;;;;;4972933;28;20324;-77
2021/03/17 12:05:25;;;;;;;7.40;2.13;;;11.80;99.90;;;;;;4973864;28;20257;-80
2021/03/17 12:07:52;;;;;;;5.00;1.75;;;12.20;99.90;;;;;;4972871;28;20276;-79
2021/03/17 12:10:19;;;;;;;2.07;1.47;;;12.70;99.90;;;;;;4970290;28;20213;-77
2021/03/17 12:12:46;;;;;;;4.73;1.70;;;12.90;99.90;;;;;;4971823;28;20736;-76
2021/03/17 12:15:16;;;;;;;10.70;2.50;;;13.60;99.90;;;;;;4972993;28;20260;-74
2021/03/17 12:17:43;;;;;;;2.38;1.73;;;13.30;99.90;;;;;;4972459;28;20334;-74
2021/03/17 12:20:12;;;;;;;7.00;3.00;;;13.00;99.90;;;;;;4971275;28;20669;-81
2021/03/17 12:22:39;;;;;;;8.18;2.53;;;13.20;99.90;;;;;;4971968;28;20213;-78
2021/03/17 12:25:08;;;;;;;4.72;2.13;;;13.30;99.90;;;;;;4973350;28;20272;-81
2021/03/17 12:27:35;;;;;;;6.50;2.00;;;12.90;99.90;;;;;;4972903;28;20256;-78
2021/03/17 12:30:02;;;;;;;6.57;1.70;;;13.20;99.90;;;;;;4969756;28;20279;-74
2021/03/17 12:32:29;;;;;;;8.13;3.78;;;13.80;99.90;;;;;;4970991;28;20217;-79
2021/03/17 12:34:56;;;;;;;8.88;3.05;;;13.00;99.90;;;;;;4967201;28;20217;-78
2021/03/17 12:37:22;;;;;;;7.47;2.70;;;12.90;99.90;;;;;;4972009;28;20268;-80
2021/03/17 12:39:49;;;;;;;9.07;2.55;;;12.70;99.90;;;;;;4971603;28;20260;-76
2021/03/17 12:42:15;;;;;;;7.25;1.77;;;12.80;99.90;;;;;;4968155;28;20678;-75
2021/03/17 12:44:42;;;;;;;7.85;2.15;;;12.00;99.90;;;;;;4970115;28;20257;-77
2021/03/17 12:47:09;;;;;;;6.25;1.70;;;12.40;99.90;;;;;;4972276;28;20671;-75
2021/03/17 12:49:37;;;;;;;3.42;2.05;;;12.50;99.90;;;;;;4972509;28;20209;-75
2021/03/17 12:52:05;;;;;;;9.25;2.03;;;12.50;99.90;;;;;;4971866;28;20235;-73
2021/03/17 12:54:32;;;;;;;2.78;1.63;;;13.00;99.90;;;;;;4970940;28;20230;-79
2021/03/17 12:56:59;;;;;;;3.05;1.30;;;12.90;99.90;;;;;;4971720;28;20260;-75
2021/03/17 12:59:25;;;;;;;3.38;1.50;;;12.90;99.90;;;;;;4970721;28;20568;-78
2021/03/17 13:01:51;;;;;;;4.32;1.58;;;14.00;99.90;;;;;;4968396;28;20205;-79
2021/03/17 13:04:18;;;;;;;6.80;1.73;;;14.80;99.90;;;;;;4971082;28;20588;-74